createdAt,value
2018-01-29T00:00:26.943Z,29.30
2018-01-29T00:01:26.920Z,29.50
2018-01-29T00:02:26.907Z,27.40
2018-01-29T00:03:26.885Z,28.60
2018-01-29T00:04:26.869Z,29.20
2018-01-29T00:05:26.845Z,26.80
2018-01-29T00:06:26.825Z,28.80
2018-01-29T00:07:26.811Z,29.80
2018-01-29T00:08:26.787Z,28.90
2018-01-29T00:09:26.769Z,29.70
2018-01-29T00:10:26.756Z,29.50
2018-01-29T00:11:26.729Z,29.30
2018-01-29T00:12:26.716Z,29.50
2018-01-29T00:13:26.696Z,29.50
2018-01-29T00:14:26.674Z,27.60
2018-01-29T00:15:26.655Z,28.80
2018-01-29T00:16:26.636Z,29.20
2018-01-29T00:17:26.616Z,29.70
2018-01-29T00:18:26.615Z,28.30
2018-01-29T00:19:26.579Z,27.80
2018-01-29T00:20:26.565Z,27.80
2018-01-29T00:21:26.540Z,29.40
2018-01-29T00:22:26.524Z,28.70
2018-01-29T00:23:26.504Z,29.70
2018-01-29T00:24:26.482Z,28.40
2018-01-29T00:25:26.468Z,29.30
2018-01-29T00:26:26.450Z,29.80
2018-01-29T00:27:26.441Z,28.40
2018-01-29T00:28:26.404Z,27.50
2018-01-29T00:29:26.384Z,29.50
2018-01-29T00:30:26.368Z,28.00
2018-01-29T00:31:26.358Z,28.30
2018-01-29T00:32:26.332Z,27.60
2018-01-29T00:33:26.310Z,28.20
2018-01-29T00:34:26.293Z,27.60
2018-01-29T00:35:26.279Z,27.40
2018-01-29T00:36:26.254Z,27.90
2018-01-29T00:37:26.236Z,27.50
2018-01-29T00:38:26.215Z,26.10
2018-01-29T00:39:26.195Z,26.00
2018-01-29T00:40:26.180Z,26.60
2018-01-29T00:41:26.160Z,25.10
2018-01-29T00:42:26.152Z,25.70
2018-01-29T00:43:26.129Z,25.20
2018-01-29T00:44:26.105Z,24.00
2018-01-29T00:45:26.080Z,24.40
2018-01-29T00:46:26.067Z,24.10
2018-01-29T00:47:26.045Z,25.10
2018-01-29T00:48:26.027Z,26.00
2018-01-29T00:49:26.009Z,25.60
2018-01-29T00:50:25.985Z,24.60
2018-01-29T00:51:25.976Z,26.00
2018-01-29T00:52:25.952Z,26.20
2018-01-29T00:53:25.929Z,26.40
2018-01-29T00:54:25.907Z,23.70
2018-01-29T00:55:25.892Z,25.20
2018-01-29T00:56:25.873Z,24.80
2018-01-29T00:57:25.851Z,24.80
2018-01-29T00:58:25.832Z,24.80
2018-01-29T00:59:25.816Z,24.20
2018-01-29T01:00:25.796Z,24.00
2018-01-29T01:01:25.775Z,26.30
2018-01-29T01:02:25.755Z,25.30
2018-01-29T01:03:25.740Z,26.30
2018-01-29T01:04:25.727Z,25.00
2018-01-29T01:05:25.700Z,25.00
2018-01-29T01:06:25.681Z,24.10
2018-01-29T01:07:25.668Z,24.10
2018-01-29T01:08:25.645Z,24.50
2018-01-29T01:09:25.625Z,24.00
2018-01-29T01:10:25.606Z,23.80
2018-01-29T01:11:25.585Z,25.10
2018-01-29T01:12:25.570Z,24.10
2018-01-29T01:13:25.546Z,24.40
2018-01-29T01:14:25.534Z,24.90
2018-01-29T01:15:25.510Z,22.70
2018-01-29T01:16:25.504Z,24.90
2018-01-29T01:17:25.473Z,24.90
2018-01-29T01:18:25.452Z,24.50
2018-01-29T01:19:25.438Z,23.80
2018-01-29T01:20:25.469Z,25.30
2018-01-29T01:21:25.395Z,23.20
2018-01-29T01:22:25.380Z,22.60
2018-01-29T01:23:25.361Z,23.40
2018-01-29T01:24:25.337Z,21.60
2018-01-29T01:25:25.320Z,22.40
2018-01-29T01:26:25.304Z,22.10
2018-01-29T01:27:25.280Z,21.40
2018-01-29T01:28:25.263Z,21.70
2018-01-29T01:29:25.240Z,22.20
2018-01-29T01:30:25.225Z,21.70
2018-01-29T01:31:25.216Z,21.80
2018-01-29T01:32:25.183Z,21.30
2018-01-29T01:33:25.172Z,21.40
2018-01-29T01:34:25.149Z,20.30
2018-01-29T01:35:25.130Z,22.10
2018-01-29T01:36:25.117Z,21.20
2018-01-29T01:37:25.092Z,20.40
2018-01-29T01:38:25.074Z,21.40
2018-01-29T01:39:25.055Z,21.50
2018-01-29T01:40:25.035Z,21.50
2018-01-29T01:41:25.016Z,21.50
2018-01-29T01:42:24.998Z,20.70
2018-01-29T01:43:24.974Z,21.40
2018-01-29T01:44:24.957Z,21.10
2018-01-29T01:45:24.940Z,21.20
2018-01-29T01:46:24.924Z,21.00
2018-01-29T01:47:24.899Z,20.70
2018-01-29T01:48:24.884Z,22.00
2018-01-29T01:49:24.859Z,20.90
2018-01-29T01:50:24.840Z,21.00
2018-01-29T01:51:24.821Z,21.40
2018-01-29T01:52:24.805Z,21.70
2018-01-29T01:53:24.785Z,21.90
2018-01-29T01:54:24.764Z,22.70
2018-01-29T01:55:24.746Z,22.60
2018-01-29T01:56:24.726Z,21.80
2018-01-29T01:57:24.711Z,21.40
2018-01-29T01:58:24.686Z,20.40
2018-01-29T01:59:24.672Z,22.10
2018-01-29T02:00:24.658Z,20.50
2018-01-29T02:01:24.632Z,19.80
2018-01-29T02:02:24.615Z,19.40
2018-01-29T02:03:24.592Z,20.50
2018-01-29T02:04:24.574Z,20.30
2018-01-29T02:05:24.565Z,20.10
2018-01-29T02:06:24.535Z,19.50
2018-01-29T02:07:24.516Z,17.10
2018-01-29T02:08:24.496Z,20.00
2018-01-29T02:09:24.482Z,18.60
2018-01-29T02:10:24.461Z,17.80
2018-01-29T02:11:24.441Z,18.60
2018-01-29T02:12:24.423Z,18.40
2018-01-29T02:13:24.399Z,17.80
2018-01-29T02:14:24.387Z,17.30
2018-01-29T02:15:24.365Z,17.50
2018-01-29T02:16:24.355Z,18.00
2018-01-29T02:17:24.323Z,17.30
2018-01-29T02:18:24.305Z,18.30
2018-01-29T02:19:24.290Z,18.00
2018-01-29T02:20:24.267Z,17.80
2018-01-29T02:21:24.265Z,17.30
2018-01-29T02:22:24.232Z,17.20
2018-01-29T02:23:24.213Z,18.40
2018-01-29T02:24:24.196Z,17.60
2018-01-29T02:25:24.171Z,16.70
2018-01-29T02:26:24.151Z,15.10
2018-01-29T02:27:24.141Z,15.50
2018-01-29T02:28:24.115Z,16.80
2018-01-29T02:29:24.093Z,14.80
2018-01-29T02:30:24.085Z,17.20
2018-01-29T02:31:24.065Z,14.90
2018-01-29T02:32:24.038Z,15.60
2018-01-29T02:33:24.022Z,15.10
2018-01-29T02:34:24.001Z,14.10
2018-01-29T02:35:23.979Z,14.60
2018-01-29T02:36:23.962Z,15.60
2018-01-29T02:37:23.943Z,13.10
2018-01-29T02:38:23.925Z,14.80
2018-01-29T02:39:23.903Z,14.40
2018-01-29T02:40:23.890Z,15.10
2018-01-29T02:41:23.865Z,15.90
2018-01-29T02:42:23.845Z,14.60
2018-01-29T02:43:23.825Z,15.80
2018-01-29T02:44:23.808Z,15.60
2018-01-29T02:45:23.788Z,14.30
2018-01-29T02:46:23.768Z,14.10
2018-01-29T02:47:23.752Z,13.80
2018-01-29T02:48:23.730Z,13.90
2018-01-29T02:49:23.714Z,14.30
2018-01-29T02:50:23.695Z,13.10
2018-01-29T02:51:23.674Z,14.30
2018-01-29T02:52:23.654Z,13.80
2018-01-29T02:53:23.632Z,14.30
2018-01-29T02:54:23.620Z,13.40
2018-01-29T02:55:23.595Z,13.80
2018-01-29T02:56:23.580Z,14.00
2018-01-29T02:57:23.558Z,13.90
2018-01-29T02:58:23.537Z,14.70
2018-01-29T02:59:23.542Z,13.40
2018-01-29T03:00:23.499Z,13.30
2018-01-29T03:01:23.481Z,11.90
2018-01-29T03:02:23.464Z,13.10
2018-01-29T03:03:23.443Z,12.80
2018-01-29T03:04:23.425Z,13.50
2018-01-29T03:05:23.404Z,13.10
2018-01-29T03:06:23.384Z,12.90
2018-01-29T03:07:23.368Z,12.80
2018-01-29T03:08:23.345Z,13.30
2018-01-29T03:09:23.330Z,12.90
2018-01-29T03:10:23.314Z,12.60
2018-01-29T03:11:23.294Z,12.80
2018-01-29T03:12:23.269Z,12.40
2018-01-29T03:13:23.248Z,12.10
2018-01-29T03:14:23.239Z,11.20
2018-01-29T03:15:23.222Z,13.00
2018-01-29T03:16:23.195Z,11.90
2018-01-29T03:17:23.174Z,12.90
2018-01-29T03:18:23.155Z,12.40
2018-01-29T03:19:23.143Z,12.60
2018-01-29T03:20:23.121Z,11.10
2018-01-29T03:21:23.100Z,11.80
2018-01-29T03:22:23.080Z,12.30
2018-01-29T03:23:23.061Z,11.30
2018-01-29T03:24:23.044Z,11.80
2018-01-29T03:25:23.021Z,12.80
2018-01-29T03:26:23.004Z,12.50
2018-01-29T03:27:22.983Z,12.40
2018-01-29T03:28:22.967Z,12.70
2018-01-29T03:29:22.948Z,11.70
2018-01-29T03:30:22.926Z,12.40
2018-01-29T03:31:22.908Z,12.60
2018-01-29T03:32:22.892Z,12.20
2018-01-29T03:33:22.865Z,12.80
2018-01-29T03:34:22.851Z,12.00
2018-01-29T03:35:22.833Z,11.80
2018-01-29T03:36:22.813Z,11.70
2018-01-29T03:37:22.792Z,12.00
2018-01-29T03:38:22.774Z,12.30
2018-01-29T03:39:22.752Z,12.60
2018-01-29T03:40:22.735Z,12.80
2018-01-29T03:41:22.715Z,11.40
2018-01-29T03:42:22.699Z,11.70
2018-01-29T03:43:22.682Z,12.80
2018-01-29T03:44:22.663Z,12.30
2018-01-29T03:45:22.646Z,12.50
2018-01-29T03:46:22.621Z,11.60
2018-01-29T03:47:22.602Z,12.20
2018-01-29T03:48:22.580Z,11.40
2018-01-29T03:49:22.564Z,12.20
2018-01-29T03:50:22.540Z,12.20
2018-01-29T03:51:22.528Z,12.60
2018-01-29T03:52:22.505Z,12.60
2018-01-29T03:53:22.484Z,12.40
2018-01-29T03:54:22.465Z,11.60
2018-01-29T03:55:22.446Z,12.90
2018-01-29T03:56:22.431Z,12.00
2018-01-29T03:57:22.410Z,12.20
2018-01-29T03:58:22.390Z,12.20
2018-01-29T03:59:22.374Z,12.40
2018-01-29T04:00:22.352Z,12.10
2018-01-29T04:01:22.336Z,12.30
2018-01-29T04:02:22.314Z,11.80
2018-01-29T04:03:22.298Z,11.80
2018-01-29T04:04:22.279Z,11.80
2018-01-29T04:05:22.258Z,12.70
2018-01-29T04:06:22.235Z,11.40
2018-01-29T04:07:22.216Z,11.30
2018-01-29T04:08:22.200Z,12.80
2018-01-29T04:09:22.186Z,12.10
2018-01-29T04:10:22.160Z,12.80
2018-01-29T04:11:22.140Z,12.60
2018-01-29T04:12:22.148Z,12.30
2018-01-29T04:13:22.104Z,11.60
2018-01-29T04:14:22.085Z,11.80
2018-01-29T04:15:22.070Z,12.00
2018-01-29T04:16:22.050Z,12.80
2018-01-29T04:17:22.025Z,12.30
2018-01-29T04:18:22.007Z,12.20
2018-01-29T04:19:21.994Z,12.10
2018-01-29T04:20:21.978Z,11.80
2018-01-29T04:21:21.954Z,12.20
2018-01-29T04:22:21.932Z,12.40
2018-01-29T04:23:21.914Z,12.00
2018-01-29T04:24:21.897Z,12.80
2018-01-29T04:25:21.876Z,13.70
2018-01-29T04:26:21.855Z,13.70
2018-01-29T04:27:21.838Z,12.70
2018-01-29T04:28:21.815Z,13.90
2018-01-29T04:29:21.796Z,12.90
2018-01-29T04:30:21.781Z,14.00
2018-01-29T04:31:21.760Z,13.30
2018-01-29T04:32:21.742Z,12.20
2018-01-29T04:33:21.721Z,12.90
2018-01-29T04:34:21.701Z,12.80
2018-01-29T04:35:21.686Z,12.80
2018-01-29T04:36:21.662Z,12.50
2018-01-29T04:37:21.645Z,12.60
2018-01-29T04:38:21.627Z,12.20
2018-01-29T04:39:21.607Z,12.50
2018-01-29T04:40:21.585Z,12.70
2018-01-29T04:41:21.567Z,13.80
2018-01-29T04:42:21.551Z,13.80
2018-01-29T04:43:21.531Z,13.10
2018-01-29T04:44:21.509Z,12.10
2018-01-29T04:45:21.498Z,12.40
2018-01-29T04:46:21.481Z,13.90
2018-01-29T04:47:21.456Z,13.50
2018-01-29T04:48:21.435Z,13.10
2018-01-29T04:49:21.416Z,13.40
2018-01-29T04:50:21.395Z,12.90
2018-01-29T04:51:21.376Z,12.20
2018-01-29T04:52:21.362Z,12.60
2018-01-29T04:53:21.347Z,12.20
2018-01-29T04:54:21.322Z,13.30
2018-01-29T04:55:21.305Z,12.60
2018-01-29T04:56:21.281Z,13.30
2018-01-29T04:57:21.265Z,12.50
2018-01-29T04:58:21.243Z,13.10
2018-01-29T04:59:21.225Z,13.40
2018-01-29T05:00:21.202Z,12.80
2018-01-29T05:01:21.185Z,14.00
2018-01-29T05:02:21.166Z,13.90
2018-01-29T05:03:21.147Z,12.30
2018-01-29T05:04:21.130Z,13.80
2018-01-29T05:05:21.108Z,13.50
2018-01-29T05:06:21.091Z,13.80
2018-01-29T05:07:21.070Z,13.70
2018-01-29T05:08:21.052Z,14.80
2018-01-29T05:09:21.037Z,14.00
2018-01-29T05:10:21.013Z,12.70
2018-01-29T05:11:21.007Z,11.80
2018-01-29T05:12:20.974Z,13.10
2018-01-29T05:13:20.956Z,13.70
2018-01-29T05:14:20.939Z,14.00
2018-01-29T05:15:20.917Z,12.80
2018-01-29T05:16:20.901Z,13.00
2018-01-29T05:17:20.880Z,13.10
2018-01-29T05:18:20.862Z,13.10
2018-01-29T05:19:20.855Z,13.30
2018-01-29T05:20:20.824Z,13.30
2018-01-29T05:21:20.806Z,13.30
2018-01-29T05:22:20.793Z,12.60
2018-01-29T05:23:20.768Z,12.40
2018-01-29T05:24:20.752Z,13.80
2018-01-29T05:25:20.732Z,11.90
2018-01-29T05:26:20.717Z,14.00
2018-01-29T05:27:20.688Z,12.60
2018-01-29T05:28:20.672Z,13.10
2018-01-29T05:29:20.652Z,12.10
2018-01-29T05:30:20.636Z,12.60
2018-01-29T05:31:20.613Z,11.60
2018-01-29T05:32:20.599Z,12.20
2018-01-29T05:33:20.575Z,12.90
2018-01-29T05:34:20.561Z,12.70
2018-01-29T05:35:20.537Z,15.10
2018-01-29T05:36:20.520Z,12.20
2018-01-29T05:37:20.498Z,14.60
2018-01-29T05:38:20.486Z,13.20
2018-01-29T05:39:20.462Z,12.60
2018-01-29T05:40:20.442Z,12.90
2018-01-29T05:41:20.425Z,11.80
2018-01-29T05:42:20.407Z,13.20
2018-01-29T05:43:20.385Z,13.10
2018-01-29T05:44:20.365Z,13.40
2018-01-29T05:45:20.356Z,12.80
2018-01-29T05:46:20.331Z,13.00
2018-01-29T05:47:20.307Z,11.90
2018-01-29T05:48:20.289Z,14.30
2018-01-29T05:49:20.282Z,12.90
2018-01-29T05:50:20.253Z,14.50
2018-01-29T05:51:20.232Z,12.20
2018-01-29T05:52:20.214Z,13.50
2018-01-29T05:53:20.195Z,13.50
2018-01-29T05:54:20.177Z,12.20
2018-01-29T05:55:20.155Z,13.20
2018-01-29T05:56:20.145Z,13.90
2018-01-29T05:57:20.118Z,14.30
2018-01-29T05:58:20.102Z,12.30
2018-01-29T05:59:20.078Z,14.70
2018-01-29T06:00:20.062Z,13.90
2018-01-29T06:01:20.044Z,11.50
2018-01-29T06:02:20.023Z,11.40
2018-01-29T06:03:20.003Z,13.20
2018-01-29T06:04:19.984Z,14.80
2018-01-29T06:05:19.967Z,12.20
2018-01-29T06:06:19.944Z,11.40
2018-01-29T06:07:19.927Z,14.30
2018-01-29T06:08:19.912Z,12.40
2018-01-29T06:09:19.889Z,16.60
2018-01-29T06:10:19.873Z,10.80
2018-01-29T06:11:19.852Z,12.20
2018-01-29T06:12:19.831Z,13.90
2018-01-29T06:13:19.814Z,13.40
2018-01-29T06:14:19.793Z,13.40
2018-01-29T06:15:19.775Z,9.10
2018-01-29T06:16:19.755Z,14.10
2018-01-29T06:17:19.738Z,11.30
2018-01-29T06:18:19.722Z,12.50
2018-01-29T06:19:19.697Z,15.10
2018-01-29T06:20:19.681Z,11.00
2018-01-29T06:21:19.719Z,10.40
2018-01-29T06:22:19.641Z,12.10
2018-01-29T06:23:19.634Z,10.50
2018-01-29T06:24:19.608Z,11.80
2018-01-29T06:25:19.584Z,12.50
2018-01-29T06:26:19.564Z,11.10
2018-01-29T06:27:19.548Z,12.80
2018-01-29T06:28:19.528Z,14.70
2018-01-29T06:29:19.512Z,12.40
2018-01-29T06:30:19.492Z,14.00
2018-01-29T06:31:19.479Z,10.90
2018-01-29T06:32:19.453Z,12.30
2018-01-29T06:33:19.434Z,10.20
2018-01-29T06:34:19.422Z,10.30
2018-01-29T06:35:19.398Z,13.40
2018-01-29T06:36:19.381Z,11.30
2018-01-29T06:37:19.368Z,15.30
2018-01-29T06:38:19.337Z,11.30
2018-01-29T06:39:19.319Z,10.00
2018-01-29T06:40:19.299Z,9.60
2018-01-29T06:41:19.284Z,8.90
2018-01-29T06:42:19.264Z,15.60
2018-01-29T06:43:19.252Z,9.60
2018-01-29T06:44:19.224Z,10.20
2018-01-29T06:45:19.203Z,11.10
2018-01-29T06:46:19.190Z,10.90
2018-01-29T06:47:19.165Z,15.30
2018-01-29T06:48:19.152Z,9.80
2018-01-29T06:49:19.128Z,14.30
2018-01-29T06:50:19.113Z,12.00
2018-01-29T06:51:19.094Z,13.10
2018-01-29T06:52:19.074Z,12.50
2018-01-29T06:53:19.061Z,10.80
2018-01-29T06:54:19.036Z,11.30
2018-01-29T06:55:19.016Z,15.00
2018-01-29T06:56:18.995Z,14.10
2018-01-29T06:57:18.979Z,11.00
2018-01-29T06:58:18.964Z,14.30
2018-01-29T06:59:18.939Z,11.90
2018-01-29T07:00:18.923Z,10.70
2018-01-29T07:01:18.898Z,13.50
2018-01-29T07:02:18.882Z,13.10
2018-01-29T07:03:18.864Z,13.10
2018-01-29T07:04:18.843Z,12.70
2018-01-29T07:05:18.825Z,13.70
2018-01-29T07:06:18.805Z,13.00
2018-01-29T07:07:18.785Z,13.70
2018-01-29T07:08:18.768Z,15.10
2018-01-29T07:09:18.748Z,10.20
2018-01-29T07:10:18.729Z,11.40
2018-01-29T07:11:18.709Z,15.40
2018-01-29T07:12:18.694Z,16.30
2018-01-29T07:13:18.674Z,13.50
2018-01-29T07:14:18.654Z,12.10
2018-01-29T07:15:18.636Z,16.80
2018-01-29T07:16:18.614Z,12.40
2018-01-29T07:17:18.595Z,12.60
2018-01-29T07:18:18.575Z,13.40
2018-01-29T07:19:18.559Z,13.40
2018-01-29T07:20:18.540Z,14.60
2018-01-29T07:21:18.522Z,15.10
2018-01-29T07:22:18.505Z,12.60
2018-01-29T07:23:18.485Z,11.50
2018-01-29T07:24:18.463Z,11.00
2018-01-29T07:25:18.445Z,11.50
2018-01-29T07:26:18.426Z,13.00
2018-01-29T07:27:18.411Z,10.40
2018-01-29T07:28:18.385Z,12.80
2018-01-29T07:29:18.376Z,15.90
2018-01-29T07:30:18.353Z,12.60
2018-01-29T07:31:18.329Z,14.40
2018-01-29T07:32:18.322Z,13.80
2018-01-29T07:33:18.289Z,11.50
2018-01-29T07:34:18.273Z,9.30
2018-01-29T07:35:18.255Z,11.50
2018-01-29T07:36:18.235Z,12.00
2018-01-29T07:37:18.215Z,11.60
2018-01-29T07:38:18.193Z,14.50
2018-01-29T07:39:18.178Z,13.80
2018-01-29T07:40:18.157Z,14.60
2018-01-29T07:41:18.139Z,14.40
2018-01-29T07:42:18.123Z,13.10
2018-01-29T07:43:18.102Z,16.00
2018-01-29T07:44:18.083Z,17.60
2018-01-29T07:45:18.065Z,12.00
2018-01-29T07:46:18.043Z,12.00
2018-01-29T07:47:18.026Z,14.40
2018-01-29T07:48:18.013Z,14.80
2018-01-29T07:49:17.989Z,11.70
2018-01-29T07:50:17.976Z,13.50
2018-01-29T07:51:17.950Z,14.50
2018-01-29T07:52:17.933Z,15.70
2018-01-29T07:53:17.911Z,12.40
2018-01-29T07:54:17.897Z,13.50
2018-01-29T07:55:17.874Z,15.20
2018-01-29T07:56:17.856Z,14.60
2018-01-29T07:57:17.874Z,13.70
2018-01-29T07:58:17.822Z,14.60
2018-01-29T07:59:17.798Z,14.70
2018-01-29T08:00:17.784Z,17.20
2018-01-29T08:01:17.763Z,17.80
2018-01-29T08:02:17.740Z,12.30
2018-01-29T08:03:17.723Z,17.00
2018-01-29T08:04:17.704Z,13.10
2018-01-29T08:05:17.686Z,14.50
2018-01-29T08:06:17.664Z,17.50
2018-01-29T08:07:17.646Z,16.30
2018-01-29T08:08:17.625Z,19.00
2018-01-29T08:09:17.606Z,15.70
2018-01-29T08:10:17.596Z,18.80
2018-01-29T08:12:17.552Z,14.10
2018-01-29T08:13:17.535Z,16.30
2018-01-29T08:14:17.516Z,14.00
2018-01-29T08:15:17.494Z,15.40
2018-01-29T08:16:17.479Z,17.70
2018-01-29T08:17:17.456Z,15.40
2018-01-29T08:18:17.437Z,15.10
2018-01-29T08:19:17.416Z,15.50
2018-01-29T08:20:17.400Z,16.50
2018-01-29T08:21:17.382Z,15.50
2018-01-29T08:22:17.362Z,14.20
2018-01-29T08:23:17.348Z,18.20
2018-01-29T08:24:17.323Z,16.20
2018-01-29T08:25:17.314Z,15.70
2018-01-29T08:26:17.295Z,16.80
2018-01-29T08:27:17.266Z,14.20
2018-01-29T08:28:17.253Z,13.90
2018-01-29T08:29:17.228Z,15.00
2018-01-29T08:30:17.231Z,15.70
2018-01-29T08:31:17.196Z,18.60
2018-01-29T08:32:17.174Z,14.90
2018-01-29T08:33:17.156Z,15.10
2018-01-29T08:34:17.134Z,15.40
2018-01-29T08:35:17.115Z,14.40
2018-01-29T08:36:17.102Z,16.60
2018-01-29T08:37:17.080Z,14.00
2018-01-29T08:38:17.063Z,15.90
2018-01-29T08:39:17.052Z,14.20
2018-01-29T08:40:17.024Z,16.40
2018-01-29T08:41:17.001Z,15.20
2018-01-29T08:42:16.988Z,13.40
2018-01-29T08:43:16.965Z,19.00
2018-01-29T08:44:16.948Z,17.20
2018-01-29T08:45:16.927Z,14.20
2018-01-29T08:46:16.913Z,15.70
2018-01-29T08:47:16.892Z,19.80
2018-01-29T08:48:16.871Z,16.80
2018-01-29T08:49:16.857Z,15.80
2018-01-29T08:50:16.834Z,15.30
2018-01-29T08:51:16.816Z,15.20
2018-01-29T08:52:16.793Z,15.10
2018-01-29T08:53:16.775Z,18.40
2018-01-29T08:54:16.756Z,14.20
2018-01-29T08:55:16.737Z,15.80
2018-01-29T08:56:16.722Z,16.90
2018-01-29T08:57:16.706Z,13.90
2018-01-29T08:58:16.685Z,15.40
2018-01-29T08:59:16.670Z,15.50
2018-01-29T09:00:16.643Z,19.10
2018-01-29T09:01:16.626Z,12.90
2018-01-29T09:02:16.607Z,17.50
2018-01-29T09:03:16.586Z,16.70
2018-01-29T09:04:16.568Z,13.00
2018-01-29T09:05:16.549Z,13.70
2018-01-29T09:06:16.541Z,16.20
2018-01-29T09:07:16.516Z,16.30
2018-01-29T09:08:16.493Z,13.90
2018-01-29T09:09:16.475Z,13.80
2018-01-29T09:10:16.456Z,15.00
2018-01-29T09:11:16.437Z,15.80
2018-01-29T09:12:16.471Z,16.40
2018-01-29T09:13:16.398Z,12.80
2018-01-29T09:14:16.381Z,13.50
2018-01-29T09:15:16.367Z,16.20
2018-01-29T09:16:16.342Z,15.00
2018-01-29T09:17:16.324Z,16.10
2018-01-29T09:18:16.302Z,14.40
2018-01-29T09:19:16.286Z,19.70
2018-01-29T09:20:16.265Z,15.20
2018-01-29T09:21:16.246Z,14.50
2018-01-29T09:22:16.227Z,17.70
2018-01-29T09:23:16.211Z,18.40
2018-01-29T09:24:16.191Z,18.70
2018-01-29T09:25:16.170Z,12.90
2018-01-29T09:26:16.153Z,13.00
2018-01-29T09:27:16.140Z,14.50
2018-01-29T09:28:16.116Z,14.70
2018-01-29T09:29:16.100Z,13.50
2018-01-29T09:30:16.077Z,16.10
2018-01-29T09:31:16.056Z,17.10
2018-01-29T09:32:16.041Z,16.30
2018-01-29T09:33:16.019Z,14.20
2018-01-29T09:34:16.002Z,15.20
2018-01-29T09:35:15.985Z,12.70
2018-01-29T09:36:15.962Z,12.30
2018-01-29T09:37:15.949Z,12.30
2018-01-29T09:38:15.926Z,12.90
2018-01-29T09:39:15.909Z,12.10
2018-01-29T09:40:15.886Z,12.70
2018-01-29T09:41:15.866Z,9.00
2018-01-29T09:42:15.862Z,11.50
2018-01-29T09:43:15.829Z,13.80
2018-01-29T09:44:15.813Z,13.90
2018-01-29T09:45:15.792Z,14.40
2018-01-29T09:46:15.776Z,11.20
2018-01-29T09:47:15.754Z,13.50
2018-01-29T09:48:15.734Z,14.30
2018-01-29T09:49:15.716Z,10.30
2018-01-29T09:50:15.696Z,12.00
2018-01-29T09:51:15.681Z,12.60
2018-01-29T09:52:15.660Z,14.70
2018-01-29T09:53:15.643Z,14.00
2018-01-29T09:54:15.622Z,13.60
2018-01-29T09:55:15.602Z,13.00
2018-01-29T09:56:15.585Z,14.60
2018-01-29T09:57:15.564Z,16.10
2018-01-29T09:58:15.546Z,9.60
2018-01-29T09:59:15.525Z,14.20
2018-01-29T10:00:15.510Z,16.50
2018-01-29T10:01:15.489Z,14.80
2018-01-29T10:02:15.475Z,13.30
2018-01-29T10:03:15.451Z,13.60
2018-01-29T10:04:15.431Z,11.90
2018-01-29T10:05:15.419Z,15.30
2018-01-29T10:06:15.392Z,12.30
2018-01-29T10:07:15.379Z,14.50
2018-01-29T10:08:15.355Z,15.10
2018-01-29T10:09:15.336Z,15.80
2018-01-29T10:10:15.318Z,10.20
2018-01-29T10:11:15.304Z,16.20
2018-01-29T10:12:15.281Z,12.80
2018-01-29T10:13:15.267Z,14.60
2018-01-29T10:14:15.256Z,14.50
2018-01-29T10:15:15.223Z,11.40
2018-01-29T10:16:15.204Z,12.40
2018-01-29T10:17:15.191Z,16.80
2018-01-29T10:18:15.172Z,14.50
2018-01-29T10:19:15.149Z,12.40
2018-01-29T10:20:15.135Z,13.40
2018-01-29T10:21:15.126Z,13.20
2018-01-29T10:22:15.092Z,13.90
2018-01-29T10:23:15.073Z,15.20
2018-01-29T10:24:15.056Z,13.50
2018-01-29T10:25:15.034Z,15.10
2018-01-29T10:26:15.015Z,15.00
2018-01-29T10:27:14.996Z,12.90
2018-01-29T10:28:14.976Z,17.00
2018-01-29T10:29:14.956Z,15.10
2018-01-29T10:30:14.990Z,14.10
2018-01-29T10:31:14.917Z,16.20
2018-01-29T10:32:14.901Z,16.90
2018-01-29T10:33:14.880Z,13.10
2018-01-29T10:34:14.861Z,11.10
2018-01-29T10:35:14.845Z,14.00
2018-01-29T10:36:14.826Z,14.50
2018-01-29T10:37:14.806Z,14.00
2018-01-29T10:38:14.793Z,12.90
2018-01-29T10:39:14.767Z,13.40
2018-01-29T10:40:14.759Z,14.30
2018-01-29T10:41:14.735Z,13.50
2018-01-29T10:42:14.711Z,12.50
2018-01-29T10:43:14.699Z,14.00
2018-01-29T10:44:14.676Z,12.30
2018-01-29T10:45:14.655Z,12.10
2018-01-29T10:46:14.637Z,11.80
2018-01-29T10:47:14.617Z,14.00
2018-01-29T10:48:14.601Z,15.50
2018-01-29T10:49:14.583Z,15.20
2018-01-29T10:50:14.561Z,12.00
2018-01-29T10:51:14.544Z,10.70
2018-01-29T10:52:14.526Z,11.80
2018-01-29T10:53:14.511Z,12.00
2018-01-29T10:54:14.483Z,11.20
2018-01-29T10:55:14.469Z,12.10
2018-01-29T10:56:14.459Z,15.40
2018-01-29T10:57:14.433Z,10.50
2018-01-29T10:58:14.413Z,10.30
2018-01-29T10:59:14.389Z,14.40
2018-01-29T11:00:14.373Z,9.30
2018-01-29T11:01:14.357Z,11.80
2018-01-29T11:02:14.335Z,11.60
2018-01-29T11:03:14.315Z,12.90
2018-01-29T11:04:14.296Z,10.70
2018-01-29T11:05:14.275Z,10.50
2018-01-29T11:06:14.264Z,11.80
2018-01-29T11:07:14.244Z,13.10
2018-01-29T11:08:14.220Z,11.60
2018-01-29T11:09:14.204Z,12.00
2018-01-29T11:10:14.181Z,12.90
2018-01-29T11:11:14.165Z,12.20
2018-01-29T11:12:14.146Z,13.00
2018-01-29T11:13:14.124Z,10.00
2018-01-29T11:14:14.110Z,10.30
2018-01-29T11:15:14.091Z,11.70
2018-01-29T11:16:14.070Z,12.20
2018-01-29T11:17:14.050Z,10.60
2018-01-29T11:18:14.032Z,10.80
2018-01-29T11:19:14.015Z,12.00
2018-01-29T11:20:13.996Z,13.70
2018-01-29T11:21:13.975Z,13.20
2018-01-29T11:22:13.955Z,10.70
2018-01-29T11:23:13.943Z,11.30
2018-01-29T11:24:13.927Z,11.80
2018-01-29T11:25:13.914Z,12.40
2018-01-29T11:26:13.879Z,12.20
2018-01-29T11:27:13.864Z,13.40
2018-01-29T11:28:13.846Z,16.50
2018-01-29T11:29:13.825Z,10.40
2018-01-29T11:30:13.803Z,14.40
2018-01-29T11:31:13.785Z,12.40
2018-01-29T11:32:13.770Z,12.40
2018-01-29T11:33:13.754Z,11.80
2018-01-29T11:34:13.730Z,15.50
2018-01-29T11:35:13.719Z,13.10
2018-01-29T11:36:13.690Z,11.90
2018-01-29T11:37:13.676Z,14.40
2018-01-29T11:38:13.650Z,12.70
2018-01-29T11:39:13.639Z,13.40
2018-01-29T11:40:13.620Z,15.90
2018-01-29T11:41:13.595Z,15.60
2018-01-29T11:42:13.577Z,11.70
2018-01-29T11:43:13.571Z,10.50
2018-01-29T11:44:13.543Z,12.50
2018-01-29T11:45:13.518Z,12.30
2018-01-29T11:46:13.508Z,14.80
2018-01-29T11:47:13.491Z,11.40
2018-01-29T11:48:13.462Z,11.20
2018-01-29T11:49:13.444Z,13.20
2018-01-29T11:50:13.425Z,10.70
2018-01-29T11:51:13.409Z,11.10
2018-01-29T11:52:13.386Z,10.20
2018-01-29T11:53:13.365Z,12.30
2018-01-29T11:54:13.353Z,11.90
2018-01-29T11:55:13.337Z,11.20
2018-01-29T11:56:13.310Z,10.30
2018-01-29T11:57:13.293Z,12.30
2018-01-29T11:58:13.284Z,9.60
2018-01-29T11:59:13.254Z,12.10
2018-01-29T12:00:13.234Z,11.00
2018-01-29T12:01:13.223Z,10.40
2018-01-29T12:02:13.195Z,13.10
2018-01-29T12:03:13.181Z,9.10
2018-01-29T12:04:13.165Z,11.00
2018-01-29T12:05:13.144Z,12.30
2018-01-29T12:06:13.120Z,9.80
2018-01-29T12:07:13.106Z,9.60
2018-01-29T12:08:13.086Z,10.20
2018-01-29T12:09:13.062Z,10.10
2018-01-29T12:10:13.055Z,12.40
2018-01-29T12:11:13.025Z,10.30
2018-01-29T12:12:13.006Z,8.50
2018-01-29T12:13:12.986Z,12.40
2018-01-29T12:14:12.969Z,9.50
2018-01-29T12:15:12.968Z,10.20
2018-01-29T12:16:12.929Z,10.40
2018-01-29T12:17:12.914Z,10.20
2018-01-29T12:18:12.895Z,10.50
2018-01-29T12:19:15.742Z,10.30
2018-01-29T12:20:12.856Z,10.90
2018-01-29T12:21:12.837Z,10.60
2018-01-29T12:22:12.815Z,12.50
2018-01-29T12:23:12.804Z,10.70
2018-01-29T12:24:12.777Z,10.50
2018-01-29T12:25:12.768Z,10.90
2018-01-29T12:26:12.744Z,9.70
2018-01-29T12:27:12.723Z,11.20
2018-01-29T12:28:12.700Z,13.30
2018-01-29T12:29:12.684Z,11.10
2018-01-29T12:30:12.665Z,10.80
2018-01-29T12:31:12.653Z,11.40
2018-01-29T12:32:12.629Z,12.30
2018-01-29T12:33:12.615Z,10.40
2018-01-29T12:34:12.590Z,11.10
2018-01-29T12:35:12.575Z,10.90
2018-01-29T12:36:12.556Z,11.10
2018-01-29T12:37:12.532Z,10.10
2018-01-29T12:38:12.515Z,8.60
2018-01-29T12:39:12.498Z,11.40
2018-01-29T12:40:12.477Z,10.10
2018-01-29T12:41:12.455Z,9.80
2018-01-29T12:42:12.438Z,9.50
2018-01-29T12:43:12.418Z,10.60
2018-01-29T12:44:12.399Z,9.60
2018-01-29T12:45:12.380Z,8.80
2018-01-29T12:46:12.362Z,10.20
2018-01-29T12:47:12.343Z,9.50
2018-01-29T12:48:12.322Z,8.70
2018-01-29T12:49:12.308Z,10.20
2018-01-29T12:50:12.286Z,11.40
2018-01-29T12:51:12.273Z,8.90
2018-01-29T12:52:12.251Z,10.00
2018-01-29T12:53:12.235Z,8.30
2018-01-29T12:54:12.213Z,9.60